Time;durP1;ratioP1;P1;durP2;ratioP2;P2;SDS_P1;SDS_P2;PMS_P1;PMS_P2;Temp;Humidity;BMP_temperature;BMP_pressure;BME280_temperature;BME280_humidity;BME280_pressure;Samples;Min_cycle;Max_cycle;Signal;HPM_P1;HPM_P2
2023/08/22 00:04:10;;;;;;;0.10;0.10;;;;;;;-145.06;100.00;40012.06;10369563;28;20079;-89
2023/08/22 00:09:11;;;;;;;0.10;0.10;;;;;;;-145.06;100.00;40014.09;10370246;28;20041;-90
2023/08/22 00:14:12;;;;;;;0.10;0.10;;;;;;;-145.06;100.00;39828.44;10362666;28;20029;-89
2023/08/22 00:19:12;;;;;;;0.10;0.10;;;;;;;-145.06;100.00;39921.25;10369860;28;20048;-90
2023/08/22 00:24:13;;;;;;;0.10;0.10;;;;;;;-145.06;100.00;39995.91;10371909;28;20026;-93
2023/08/22 00:29:13;;;;;;;0.10;0.10;;;;;;;-145.06;100.00;39995.91;10409407;28;20022;-94
2023/08/22 00:34:19;;;;;;;0.10;0.10;;;;;;;-145.06;100.00;39927.31;10422338;28;20096;-94
2023/08/22 00:39:20;;;;;;;0.10;0.10;;;;;;;-145.06;100.00;39971.72;10417684;28;20030;-93
2023/08/22 00:44:21;;;;;;;0.10;0.10;;;;;;;-145.06;100.00;39868.78;10414885;28;20053;-94
2023/08/22 00:49:21;;;;;;;0.00;0.00;;;;;;;-145.06;100.00;39975.75;10416635;28;20109;-93
2023/08/22 00:54:27;;;;;;;0.10;0.10;;;;;;;-145.06;100.00;39798.16;10417544;28;20026;-93
2023/08/22 00:59:31;;;;;;;0.10;0.10;;;;;;;-145.06;100.00;39864.75;10415524;28;20021;-93
2023/08/22 01:04:35;;;;;;;0.10;0.10;;;;;;;-145.06;100.00;39769.91;10415575;28;20087;-93
2023/08/22 01:09:44;;;;;;;0.10;0.10;;;;;;;-145.06;100.00;39884.94;10441014;22;20048;-62
2023/08/22 01:14:57;;;;;;;0.10;0.10;;;;;;;-145.06;100.00;39895.03;10476458;28;20053;-62
2023/08/22 01:19:58;;;;;;;0.03;0.03;;;;;;;-145.06;100.00;39903.09;10434729;28;20047;-62
2023/08/22 01:24:58;;;;;;;0.10;0.10;;;;;;;-145.06;100.00;39937.41;10422549;28;20041;-61
2023/08/22 01:30:07;;;;;;;0.10;0.10;;;;;;;-145.06;100.00;39931.34;10433350;28;20029;-62
2023/08/22 01:35:12;;;;;;;0.10;0.10;;;;;;;-145.06;100.00;39931.34;10429009;28;20086;-63
2023/08/22 01:40:13;;;;;;;0.10;0.10;;;;;;;-145.06;100.00;39909.16;10424420;28;20031;-62
2023/08/22 01:45:13;;;;;;;0.10;0.10;;;;;;;-145.06;100.00;39915.19;10434039;28;20533;-63
2023/08/22 01:50:13;;;;;;;0.00;0.00;;;;;;;-145.06;100.00;39870.81;10422780;28;20025;-64
2023/08/22 01:55:15;;;;;;;0.00;0.00;;;;;;;-145.06;100.00;39891.00;10436441;28;20013;-63
2023/08/22 02:00:15;;;;;;;0.10;0.10;;;;;;;-145.06;100.00;39862.72;10424813;28;20368;-62
2023/08/22 02:05:16;;;;;;;0.10;0.10;;;;;;;-145.06;100.00;39848.59;10425125;28;20124;-63
2023/08/22 02:10:16;;;;;;;0.00;0.00;;;;;;;-145.06;100.00;39828.44;10416037;28;20094;-63
2023/08/22 02:15:17;;;;;;;0.00;0.00;;;;;;;-145.06;100.00;39820.34;10436306;28;20052;-63
2023/08/22 02:20:22;;;;;;;0.10;0.10;;;;;;;-145.06;100.00;39818.34;10438077;28;20030;-63
2023/08/22 02:25:22;;;;;;;0.10;0.10;;;;;;;-145.06;100.00;39840.53;10436162;28;20316;-63
2023/08/22 02:30:23;;;;;;;0.10;0.10;;;;;;;-145.06;100.00;39854.66;10434285;28;20037;-63
2023/08/22 02:35:23;;;;;;;0.10;0.10;;;;;;;-145.06;100.00;39844.56;10434297;28;20393;-63
2023/08/22 02:40:23;;;;;;;0.10;0.10;;;;;;;-145.06;100.00;39814.31;10415924;28;20121;-63
2023/08/22 02:45:23;;;;;;;0.08;0.08;;;;;;;-145.06;100.00;39836.50;10425906;28;20128;-64
2023/08/22 02:50:24;;;;;;;0.00;0.00;;;;;;;-145.06;100.00;39824.41;10436162;28;20052;-63
2023/08/22 02:55:24;;;;;;;0.00;0.00;;;;;;;-145.06;100.00;39816.31;10434460;28;20029;-62
2023/08/22 03:00:25;;;;;;;0.00;0.00;;;;;;;-145.06;100.00;39810.28;10433390;28;20178;-62
2023/08/22 03:05:25;;;;;;;0.00;0.00;;;;;;;-145.06;100.00;39828.44;10415169;28;20390;-63
2023/08/22 03:10:25;;;;;;;0.10;0.10;;;;;;;-145.06;100.00;39810.28;10435121;28;20048;-63
2023/08/22 03:15:26;;;;;;;0.00;0.00;;;;;;;-145.06;100.00;39777.97;10419673;28;20103;-63
2023/08/22 03:20:26;;;;;;;0.10;0.10;;;;;;;-145.06;100.00;39800.19;10417472;28;20569;-63
2023/08/22 03:25:26;;;;;;;0.00;0.00;;;;;;;-145.06;100.00;39792.09;10438662;28;20091;-63
2023/08/22 03:30:27;;;;;;;0.00;0.00;;;;;;;-145.06;100.00;39840.53;10425634;28;20029;-63
2023/08/22 03:35:27;;;;;;;0.10;0.10;;;;;;;-145.06;100.00;39812.28;10430956;28;20056;-63
2023/08/22 03:40:27;;;;;;;0.10;0.10;;;;;;;-145.06;100.00;39802.19;10430759;28;20350;-64
2023/08/22 03:45:28;;;;;;;0.10;0.10;;;;;;;-145.06;100.00;39822.38;10406420;28;20506;-63
2023/08/22 03:50:28;;;;;;;0.10;0.10;;;;;;;-145.06;100.00;39814.31;10406757;28;20043;-64
2023/08/22 03:55:29;;;;;;;0.10;0.10;;;;;;;-145.06;100.00;39828.44;10428678;28;20386;-63
2023/08/22 04:00:30;;;;;;;0.00;0.00;;;;;;;-145.06;100.00;39830.44;10422322;28;20409;-64
2023/08/22 04:05:30;;;;;;;0.10;0.10;;;;;;;-145.06;100.00;39834.47;10425821;28;20540;-64
2023/08/22 04:10:31;;;;;;;0.10;0.10;;;;;;;-145.06;100.00;39824.41;10441323;28;20025;-63
2023/08/22 04:15:31;;;;;;;0.10;0.10;;;;;;;-145.06;100.00;39824.41;10426549;28;20048;-63
2023/08/22 04:20:31;;;;;;;0.00;0.00;;;;;;;-145.06;100.00;39834.47;10426196;28;20044;-63
2023/08/22 04:25:31;;;;;;;0.10;0.10;;;;;;;-145.06;100.00;39810.28;10421636;28;20224;-63
2023/08/22 04:30:32;;;;;;;0.00;0.00;;;;;;;-145.06;100.00;39818.34;10426078;28;20033;-63
2023/08/22 04:35:32;;;;;;;0.10;0.10;;;;;;;-145.06;100.00;39838.53;10429243;28;20021;-63
2023/08/22 04:40:32;;;;;;;0.10;0.10;;;;;;;-145.06;100.00;39848.59;10435535;28;20035;-63
2023/08/22 04:45:33;;;;;;;0.00;0.00;;;;;;;-145.06;100.00;39822.38;10437733;28;20037;-63
2023/08/22 04:50:33;;;;;;;0.00;0.00;;;;;;;-145.06;100.00;39830.44;10432207;28;20521;-63
2023/08/22 04:55:33;;;;;;;0.10;0.10;;;;;;;-145.06;100.00;39826.41;10431621;28;20256;-63
2023/08/22 05:00:34;;;;;;;0.00;0.00;;;;;;;-145.06;100.00;39858.69;10440098;28;20394;-63
2023/08/22 05:05:34;;;;;;;0.10;0.10;;;;;;;-145.06;100.00;39822.38;10417241;28;20043;-63
2023/08/22 05:10:34;;;;;;;0.00;0.00;;;;;;;-145.06;100.00;39818.34;10425070;28;20050;-63
2023/08/22 05:15:35;;;;;;;0.10;0.10;;;;;;;-145.06;100.00;39796.16;10434888;28;20079;-63
2023/08/22 05:20:35;;;;;;;0.00;0.00;;;;;;;-145.06;100.00;39822.38;10430613;28;20389;-62
2023/08/22 05:25:35;;;;;;;0.08;0.08;;;;;;;-145.06;100.00;39735.59;10410021;28;20359;-61
2023/08/22 05:30:39;;;;;;;0.10;0.10;;;;;;;-145.06;100.00;39773.94;10435759;28;20040;-62
2023/08/22 05:35:39;;;;;;;0.00;0.00;;;;;;;-145.06;100.00;39759.81;10440529;28;20017;-63
2023/08/22 05:40:39;;;;;;;0.00;0.00;;;;;;;-145.06;100.00;39743.69;10422541;28;20428;-63
2023/08/22 05:45:40;;;;;;;0.10;0.10;;;;;;;-145.06;100.00;39648.84;10447345;28;20021;-63
2023/08/22 05:50:40;;;;;;;0.10;0.10;;;;;;;-145.06;100.00;39695.25;10423844;28;20032;-63
2023/08/22 05:55:40;;;;;;;0.10;0.10;;;;;;;-145.06;100.00;39402.66;10443345;28;20074;-63
2023/08/22 06:00:41;;;;;;;0.03;0.03;;;;;;;-145.06;85.58;38974.94;10437805;28;20024;-64
2023/08/22 06:05:41;;;;;;;0.10;0.10;;;;;;;-145.06;72.38;38458.47;10439196;28;20051;-64
2023/08/22 06:10:44;;;;;;;0.10;0.10;;;;;;;-145.06;63.82;38046.97;10424892;28;20312;-64
2023/08/22 06:15:44;;;;;;;0.10;0.10;;;;;;;-145.06;56.96;37722.25;10396322;28;20419;-64
2023/08/22 06:20:46;;;;;;;0.00;0.00;;;;;;;-145.06;51.94;37427.81;10420678;28;20026;-64
2023/08/22 06:25:47;;;;;;;0.10;0.10;;;;;;;-145.06;51.13;37318.91;10431192;28;20025;-64
2023/08/22 06:30:48;;;;;;;0.10;0.10;;;;;;;-145.06;49.13;37133.38;10424606;28;20035;-62
2023/08/22 06:35:48;;;;;;;0.00;0.00;;;;;;;-145.06;48.25;36974.06;10433046;28;20029;-62
2023/08/22 06:40:48;;;;;;;0.00;0.00;;;;;;;-145.06;45.35;36935.75;10424432;28;20020;-62
2023/08/22 06:45:49;;;;;;;0.10;0.10;;;;;;;-145.06;44.17;36780.47;10431563;28;20377;-63
2023/08/22 06:50:49;;;;;;;0.10;0.10;;;;;;;-145.06;45.82;36988.19;10433624;28;20486;-63
2023/08/22 06:55:49;;;;;;;0.10;0.10;;;;;;;-145.06;44.93;37060.78;10444868;28;20021;-63
2023/08/22 07:00:50;;;;;;;0.10;0.10;;;;;;;-145.06;45.35;36996.25;10430905;28;20107;-63
2023/08/22 07:05:52;;;;;;;0.10;0.10;;;;;;;-145.06;45.24;36784.50;10428778;28;20052;-64
2023/08/22 07:10:59;;;;;;;0.10;0.10;;;;;;;-145.06;45.04;36635.31;10426101;28;20152;-63
2023/08/22 07:16:00;;;;;;;0.10;0.10;;;;;;;-145.06;43.52;36496.19;10433167;28;20112;-64
2023/08/22 07:21:04;;;;;;;;;;;;;;;-145.06;44.35;36526.44;10432817;28;20108;-63
2023/08/22 07:26:04;;;;;;;0.10;0.10;;;;;;;-145.06;43.21;36322.78;10440783;28;20003;-63
2023/08/22 07:31:06;;;;;;;0.10;0.10;;;;;;;-145.06;43.65;36474.00;10421427;28;20055;-65
2023/08/22 07:36:16;;;;;;;0.10;0.10;;;;;;;-145.06;47.11;37014.38;10434906;28;20051;-63
2023/08/22 07:41:16;;;;;;;0.00;0.00;;;;;;;-145.06;49.41;37278.56;10440381;28;20083;-63
2023/08/22 07:46:19;;;;;;;0.10;0.10;;;;;;;-145.06;50.30;37391.50;10423516;28;20075;-61
2023/08/22 07:51:19;;;;;;;0.10;0.10;;;;;;;-145.06;47.10;37207.97;10431960;28;20025;-63
2023/08/22 07:56:19;;;;;;;0.10;0.10;;;;;;;-145.06;46.69;36939.78;10413355;28;20029;-63
2023/08/22 08:01:20;;;;;;;0.10;0.10;;;;;;;-145.06;45.46;36709.91;10423708;28;20039;-63
2023/08/22 08:06:20;;;;;;;0.10;0.10;;;;;;;-145.06;42.47;36302.63;10432478;28;20490;-62
2023/08/22 08:11:20;;;;;;;;;;;;;;;-145.06;40.98;36074.81;10433089;28;20481;-63
2023/08/22 08:16:21;;;;;;;0.10;0.10;;;;;;;-145.06;43.00;36026.44;10419035;28;19959;-63
2023/08/22 08:21:21;;;;;;;0.03;0.03;;;;;;;-145.06;41.22;36082.88;10427444;28;20018;-63
2023/08/22 08:26:21;;;;;;;0.10;0.10;;;;;;;-145.06;41.44;36082.88;10412940;28;20083;-63
2023/08/22 08:31:22;;;;;;;0.10;0.10;;;;;;;-145.06;41.52;36105.06;10433590;28;20017;-63
2023/08/22 08:36:22;;;;;;;0.10;0.10;;;;;;;-145.06;42.29;36048.59;10434372;28;20021;-63
2023/08/22 08:41:22;;;;;;;;;;;;;;;-145.06;42.75;36177.63;10424713;28;20029;-63
2023/08/22 08:46:25;;;;;;;0.00;0.00;;;;;;;-145.06;42.81;36316.75;10426904;28;20059;-64
2023/08/22 08:51:26;;;;;;;0.00;0.00;;;;;;;-145.06;44.11;36244.16;10441546;28;20025;-63
2023/08/22 08:56:27;;;;;;;0.00;0.00;;;;;;;-145.06;43.17;36078.84;10439248;28;20466;-63
2023/08/22 09:01:29;;;;;;;0.10;0.10;;;;;;;-145.06;42.22;36330.84;10443908;28;20027;-63
2023/08/22 09:06:29;;;;;;;0.10;0.10;;;;;;;-145.06;44.18;36820.81;10432862;28;20043;-63
2023/08/22 09:11:30;;;;;;;0.10;0.10;;;;;;;-145.06;47.69;37143.44;10423898;28;20545;-63
2023/08/22 09:16:30;;;;;;;0.10;0.10;;;;;;;-145.06;48.01;37224.13;10432027;28;20027;-63
2023/08/22 09:21:31;;;;;;;0.10;0.10;;;;;;;-145.06;48.42;36955.91;10406282;28;20115;-63
2023/08/22 09:26:31;;;;;;;0.07;0.07;;;;;;;-145.06;48.90;36990.19;10437573;28;20052;-63
2023/08/22 09:31:34;;;;;;;0.10;0.10;;;;;;;-145.06;50.93;37189.84;10431787;28;20028;-63
2023/08/22 09:36:41;;;;;;;0.10;0.10;;;;;;;-145.06;50.43;37284.63;10432143;28;20060;-63
2023/08/22 09:41:42;;;;;;;0.10;0.10;;;;;;;-145.06;51.34;37197.91;10423945;28;20078;-63
2023/08/22 09:46:45;;;;;;;0.10;0.10;;;;;;;-145.06;50.82;37014.38;10439794;28;20027;-63
2023/08/22 09:51:47;;;;;;;0.10;0.10;;;;;;;-145.06;52.75;37155.56;10438885;28;20112;-63
2023/08/22 09:56:48;;;;;;;0.10;0.10;;;;;;;-145.06;53.53;37222.09;10427300;28;20040;-62
2023/08/22 10:01:49;;;;;;;0.10;0.10;;;;;;;-145.06;52.16;37322.94;10442538;28;20388;-63
2023/08/22 10:06:50;;;;;;;0.00;0.00;;;;;;;-145.06;55.49;37470.16;10435031;28;20036;-64
2023/08/22 10:11:56;;;;;;;0.10;0.10;;;;;;;-145.06;58.56;37542.75;10404519;28;20029;-63
2023/08/22 10:16:58;;;;;;;0.10;0.10;;;;;;;-145.06;56.61;37250.34;10441227;28;20024;-63
2023/08/22 10:22:10;;;;;;;0.00;0.00;;;;;;;-145.06;57.93;37222.09;10437509;28;20555;-63
2023/08/22 10:27:13;;;;;;;0.10;0.10;;;;;;;-145.06;56.58;37284.63;10428700;28;20021;-63
2023/08/22 10:32:19;;;;;;;0.10;0.10;;;;;;;-145.06;53.79;37222.09;10425274;28;20646;-63
2023/08/22 10:37:25;;;;;;;0.00;0.00;;;;;;;-145.06;57.46;37089.00;10429181;28;20206;-63
2023/08/22 10:42:26;;;;;;;0.10;0.10;;;;;;;-145.06;52.10;37032.53;10418576;28;20025;-63
2023/08/22 10:47:28;;;;;;;0.10;0.10;;;;;;;-145.06;54.15;37000.28;10415468;28;20029;-63
2023/08/22 10:52:34;;;;;;;0.10;0.10;;;;;;;-145.06;56.03;37006.31;10424882;28;20104;-62
2023/08/22 10:57:44;;;;;;;0.10;0.10;;;;;;;-145.06;52.34;36963.97;10422273;28;20021;-64
2023/08/22 11:02:45;;;;;;;0.10;0.10;;;;;;;-145.06;53.66;36996.25;10420307;28;20474;-63
2023/08/22 11:07:46;;;;;;;0.10;0.10;;;;;;;-145.06;53.45;36994.22;10426130;28;20029;-63
2023/08/22 11:12:49;;;;;;;0.10;0.10;;;;;;;-145.06;53.34;37131.34;10427781;28;20112;-63
2023/08/22 11:17:50;;;;;;;0.10;0.10;;;;;;;-145.06;49.16;37203.94;10424489;28;20474;-63
2023/08/22 11:22:50;;;;;;;0.00;0.00;;;;;;;-145.06;55.31;37175.72;10425273;28;20159;-63
2023/08/22 11:27:52;;;;;;;0.10;0.10;;;;;;;-145.06;50.21;37131.34;10417909;28;20110;-63
2023/08/22 11:32:52;;;;;;;0.00;0.00;;;;;;;-145.06;52.47;37201.94;10429099;28;20581;-62
2023/08/22 11:37:52;;;;;;;0.10;0.10;;;;;;;-145.06;50.99;37328.97;10428007;28;20021;-62
2023/08/22 11:42:57;;;;;;;0.10;0.10;;;;;;;-145.06;52.55;37421.75;10425297;28;20029;-63
2023/08/22 11:47:57;;;;;;;0.10;0.10;;;;;;;-145.06;50.85;37357.22;10417587;28;20017;-63
2023/08/22 11:53:09;;;;;;;0.10;0.10;;;;;;;-145.06;50.59;37320.91;10425344;28;20125;-63
2023/08/22 11:58:17;;;;;;;0.00;0.00;;;;;;;-145.06;53.81;37214.03;10433928;28;20033;-63
2023/08/22 12:03:17;;;;;;;0.10;0.10;;;;;;;-145.06;48.60;37207.97;10423334;28;20124;-64
2023/08/22 12:08:21;;;;;;;0.10;0.10;;;;;;;-145.06;50.43;37355.19;10433607;28;20104;-64
2023/08/22 12:13:23;;;;;;;0.00;0.00;;;;;;;-145.06;50.88;37331.00;10418731;28;20089;-64
2023/08/22 12:18:30;;;;;;;0.10;0.10;;;;;;;-145.06;50.31;37331.00;10429404;28;20033;-64
2023/08/22 12:23:31;;;;;;;0.03;0.03;;;;;;;-145.06;51.13;37312.84;10418692;28;20047;-63
2023/08/22 12:28:31;;;;;;;0.10;0.10;;;;;;;-145.06;51.80;37280.59;10433437;28;20036;-62
2023/08/22 12:33:31;;;;;;;0.10;0.10;;;;;;;-145.06;51.13;37310.84;10434169;28;20462;-64
2023/08/22 12:38:31;;;;;;;0.10;0.10;;;;;;;-145.06;51.84;37278.56;10430108;28;20407;-64
2023/08/22 12:43:32;;;;;;;0.00;0.00;;;;;;;-145.06;49.39;37212.00;10433216;28;20033;-64
2023/08/22 12:48:35;;;;;;;0.00;0.00;;;;;;;-145.06;49.52;37230.16;10439112;28;20034;-63
2023/08/22 12:53:35;;;;;;;0.10;0.10;;;;;;;-145.06;49.88;37298.72;10429630;28;20033;-64
2023/08/22 12:58:36;;;;;;;0.00;0.00;;;;;;;-145.06;47.46;37405.63;10433309;28;20397;-65
2023/08/22 13:03:36;;;;;;;0.10;0.10;;;;;;;-145.06;51.18;37490.31;10422545;28;20053;-64
2023/08/22 13:08:36;;;;;;;0.00;0.00;;;;;;;-145.06;48.40;37514.53;10432733;28;20029;-65
2023/08/22 13:13:37;;;;;;;0.10;0.10;;;;;;;-145.06;48.80;37579.06;10427972;28;20021;-65
2023/08/22 13:18:37;;;;;;;0.10;0.10;;;;;;;-145.06;50.66;37651.66;10429886;28;20474;-64
2023/08/22 13:23:37;;;;;;;0.00;0.00;;;;;;;-145.06;47.38;37740.41;10431497;28;20048;-65
2023/08/22 13:28:37;;;;;;;0.10;0.10;;;;;;;-145.06;50.44;37718.22;10437354;28;20109;-61
2023/08/22 13:33:39;;;;;;;0.00;0.00;;;;;;;-145.06;49.58;37700.06;10439707;28;20033;-64
2023/08/22 13:38:40;;;;;;;0.10;0.10;;;;;;;-145.06;50.10;37752.50;10423962;28;20555;-64
2023/08/22 13:43:40;;;;;;;0.00;0.00;;;;;;;-145.06;49.79;37796.88;10438542;28;20324;-64
2023/08/22 13:48:40;;;;;;;0.00;0.00;;;;;;;-145.06;52.85;37788.81;10427875;28;20029;-64
2023/08/22 13:53:40;;;;;;;0.00;0.00;;;;;;;-145.06;52.57;37750.50;10421007;28;20114;-64
2023/08/22 13:58:41;;;;;;;0.10;0.10;;;;;;;-145.06;49.71;37708.13;10428473;28;20339;-64
2023/08/22 14:03:41;;;;;;;0.10;0.10;;;;;;;-145.06;51.31;37740.41;10435378;28;20017;-64
2023/08/22 14:08:41;;;;;;;0.10;0.10;;;;;;;-145.06;49.16;37762.59;10426367;28;20029;-64
2023/08/22 14:13:42;;;;;;;0.00;0.00;;;;;;;-145.06;51.37;37764.59;10426181;28;20030;-64
2023/08/22 14:18:43;;;;;;;0.00;0.00;;;;;;;-145.06;49.31;37774.69;10423975;28;20362;-64
2023/08/22 14:23:43;;;;;;;0.10;0.10;;;;;;;-145.06;50.76;37823.09;10438214;28;20038;-64
2023/08/22 14:28:43;;;;;;;0.10;0.10;;;;;;;-145.06;48.83;37821.06;10430793;28;20029;-64
2023/08/22 14:33:43;;;;;;;0.00;0.00;;;;;;;-145.06;46.71;37889.66;10435417;28;20441;-64
2023/08/22 14:38:44;;;;;;;0.10;0.10;;;;;;;-145.06;48.95;37871.50;10432920;28;20438;-63
2023/08/22 14:43:44;;;;;;;0.00;0.00;;;;;;;-145.06;48.48;37873.53;10437876;28;20034;-64
2023/08/22 14:48:44;;;;;;;0.00;0.00;;;;;;;-145.06;48.48;37893.69;10416976;28;20028;-64
2023/08/22 14:53:45;;;;;;;0.10;0.10;;;;;;;-145.06;49.83;37917.88;10431552;28;20021;-64
2023/08/22 14:58:47;;;;;;;0.00;0.00;;;;;;;-145.06;45.86;37925.97;10419007;28;20397;-64
2023/08/22 15:03:47;;;;;;;0.00;0.00;;;;;;;-145.06;48.89;38038.91;10436397;28;20022;-64
2023/08/22 15:08:47;;;;;;;0.00;0.00;;;;;;;-145.06;49.00;38065.13;10432710;28;20036;-64
2023/08/22 15:13:48;;;;;;;0.10;0.10;;;;;;;-145.06;51.36;38087.31;10414393;28;20490;-64
2023/08/22 15:18:48;;;;;;;0.00;0.00;;;;;;;-145.06;49.80;38125.66;10423076;28;20464;-64
2023/08/22 15:23:48;;;;;;;0.00;0.00;;;;;;;-145.06;51.37;38163.97;10434489;28;20432;-64
2023/08/22 15:28:49;;;;;;;0.10;0.10;;;;;;;-145.06;50.67;38216.41;10420209;28;20040;-64
2023/08/22 15:33:49;;;;;;;0.00;0.00;;;;;;;-145.06;49.82;38200.28;10418644;28;20300;-64
2023/08/22 15:38:50;;;;;;;0.07;0.07;;;;;;;-145.06;46.26;38289.03;10420391;28;20540;-64
2023/08/22 15:43:50;;;;;;;0.00;0.00;;;;;;;-145.06;47.31;38323.31;10423473;28;20040;-63
2023/08/22 15:48:51;;;;;;;0.00;0.00;;;;;;;-145.06;49.28;38381.81;10428788;28;20083;-62
2023/08/22 15:53:51;;;;;;;0.10;0.10;;;;;;;-145.06;47.96;38393.94;10431671;28;20021;-61
2023/08/22 15:58:52;;;;;;;0.00;0.00;;;;;;;-145.06;48.81;38444.34;10421651;28;20037;-62
2023/08/22 16:03:52;;;;;;;0.10;0.10;;;;;;;-145.06;49.99;38472.59;10427725;28;20033;-63
2023/08/22 16:08:52;;;;;;;0.00;0.00;;;;;;;-145.06;49.21;38490.75;10429571;28;20104;-63
2023/08/22 16:13:53;;;;;;;0.00;0.00;;;;;;;-145.06;48.71;38498.81;10441455;28;20329;-64
2023/08/22 16:18:53;;;;;;;0.10;0.10;;;;;;;-145.06;48.74;38496.81;10425206;28;20025;-64
2023/08/22 16:23:53;;;;;;;0.00;0.00;;;;;;;-145.06;47.80;38531.09;10420457;28;20033;-64
2023/08/22 16:28:55;;;;;;;0.10;0.10;;;;;;;-145.06;46.58;38557.31;10438650;28;20521;-63
2023/08/22 16:33:55;;;;;;;0.10;0.10;;;;;;;-145.06;47.97;38565.41;10419040;28;20028;-63
2023/08/22 16:38:56;;;;;;;0.10;0.10;;;;;;;-145.06;51.40;38575.47;10429595;28;20429;-63
2023/08/22 16:43:56;;;;;;;0.10;0.10;;;;;;;-145.06;55.72;38607.75;10423252;28;20033;-61
2023/08/22 16:48:58;;;;;;;0.05;0.05;;;;;;;-145.06;60.31;38579.50;10418581;28;20025;-63
2023/08/22 16:53:58;;;;;;;0.00;0.00;;;;;;;-145.06;61.31;38642.06;10415501;28;20017;-63
2023/08/22 16:58:59;;;;;;;0.00;0.00;;;;;;;-145.06;62.54;38642.06;10425966;28;20449;-62
2023/08/22 17:03:59;;;;;;;0.10;0.10;;;;;;;-145.06;63.25;38684.41;10420564;28;20112;-62
2023/08/22 17:09:01;;;;;;;0.10;0.10;;;;;;;-145.06;64.63;38674.31;10424609;28;20021;-63
2023/08/22 17:14:02;;;;;;;0.10;0.10;;;;;;;-145.06;65.36;38712.66;10428302;28;20079;-62
2023/08/22 17:19:03;;;;;;;0.10;0.10;;;;;;;-145.06;65.40;38746.97;10432885;28;20433;-63
2023/08/22 17:24:04;;;;;;;0.00;0.00;;;;;;;-145.06;67.98;38746.97;10425207;28;20086;-62
2023/08/22 17:29:04;;;;;;;0.05;0.05;;;;;;;-145.06;68.87;38779.22;10431452;28;20029;-63
2023/08/22 17:34:04;;;;;;;0.10;0.10;;;;;;;-145.06;67.83;38801.44;10444056;28;20026;-62
2023/08/22 17:39:05;;;;;;;0.00;0.00;;;;;;;-145.06;68.94;38791.34;10421469;28;20104;-63
2023/08/22 17:44:05;;;;;;;0.00;0.00;;;;;;;-145.06;70.47;38900.28;10449588;28;20120;-62
2023/08/22 17:49:05;;;;;;;0.00;0.00;;;;;;;-145.06;70.91;38898.25;10414385;28;20021;-63
2023/08/22 17:54:07;;;;;;;0.10;0.10;;;;;;;-145.06;72.67;38916.41;10425731;28;20024;-63
2023/08/22 17:59:07;;;;;;;0.10;0.10;;;;;;;-145.06;71.90;38944.66;10422808;28;20028;-63
2023/08/22 18:04:08;;;;;;;0.10;0.10;;;;;;;-145.06;71.60;38962.81;10427082;28;20025;-62
2023/08/22 18:09:08;;;;;;;0.00;0.00;;;;;;;-145.06;72.57;38983.00;10425605;28;20087;-63
2023/08/22 18:14:08;;;;;;;0.00;0.00;;;;;;;-145.06;74.70;39007.22;10437265;28;20044;-62
2023/08/22 18:19:09;;;;;;;0.03;0.03;;;;;;;-145.06;77.08;39027.38;10437894;28;20032;-63
2023/08/22 18:24:09;;;;;;;0.10;0.10;;;;;;;-145.06;79.22;39067.72;10427788;28;20021;-62
2023/08/22 18:29:09;;;;;;;0.10;0.10;;;;;;;-145.06;86.17;39112.13;10430935;28;20101;-62
2023/08/22 18:34:10;;;;;;;0.10;0.10;;;;;;;-145.06;88.48;39136.34;10439888;28;20017;-62
2023/08/22 18:39:10;;;;;;;0.10;0.10;;;;;;;-145.06;88.43;39213.00;10424658;28;20017;-63
2023/08/22 18:44:11;;;;;;;0.00;0.00;;;;;;;-145.06;89.16;39227.13;10423089;28;20385;-63
2023/08/22 18:49:12;;;;;;;0.08;0.08;;;;;;;-145.06;90.37;39253.34;10432998;28;20040;-63
2023/08/22 18:54:12;;;;;;;0.00;0.00;;;;;;;-145.06;93.76;39334.06;10439315;28;20027;-62
2023/08/22 18:59:12;;;;;;;0.00;0.00;;;;;;;-145.06;95.23;39326.00;10431166;28;20075;-62
2023/08/22 19:04:13;;;;;;;0.00;0.00;;;;;;;-145.06;96.89;39358.28;10425557;28;20034;-62
2023/08/22 19:09:13;;;;;;;0.10;0.10;;;;;;;-145.06;98.20;39422.84;10424693;28;20374;-61
2023/08/22 19:14:13;;;;;;;0.00;0.00;;;;;;;-145.06;100.00;39400.66;10434519;28;20020;-63
2023/08/22 19:19:14;;;;;;;0.00;0.00;;;;;;;-145.06;100.00;39422.84;10411389;28;20264;-62
2023/08/22 19:24:14;;;;;;;0.00;0.00;;;;;;;-145.06;100.00;39467.22;10414210;28;20025;-63
2023/08/22 19:29:14;;;;;;;0.00;0.00;;;;;;;-145.06;100.00;39479.34;10429439;28;20474;-62
2023/08/22 19:34:15;;;;;;;0.00;0.00;;;;;;;-145.06;100.00;39513.63;10431813;28;20013;-62
2023/08/22 19:39:15;;;;;;;0.10;0.10;;;;;;;-145.06;100.00;39485.41;10434145;28;20467;-63
2023/08/22 19:44:15;;;;;;;0.00;0.00;;;;;;;-145.06;100.00;39515.66;10422945;28;20052;-62
2023/08/22 19:49:16;;;;;;;0.10;0.10;;;;;;;-145.06;100.00;39495.47;10419729;28;20378;-62
2023/08/22 19:54:16;;;;;;;0.00;0.00;;;;;;;-145.06;100.00;39499.50;10419163;28;20025;-62
2023/08/22 19:59:16;;;;;;;0.10;0.10;;;;;;;-145.06;100.00;39523.72;10432928;28;20520;-63
2023/08/22 20:04:17;;;;;;;0.10;0.10;;;;;;;-145.06;100.00;39525.75;10403566;28;20452;-62
2023/08/22 20:09:17;;;;;;;0.10;0.10;;;;;;;-145.06;100.00;39513.63;10437485;28;20048;-62
2023/08/22 20:14:18;;;;;;;0.00;0.00;;;;;;;-145.06;100.00;39501.53;10410603;28;20470;-63
2023/08/22 20:19:18;;;;;;;0.10;0.10;;;;;;;-145.06;100.00;39545.94;10421097;28;20021;-63
2023/08/22 20:24:19;;;;;;;0.10;0.10;;;;;;;-145.06;100.00;39541.88;10434223;28;20025;-63
2023/08/22 20:29:19;;;;;;;0.10;0.10;;;;;;;-145.06;100.00;39535.84;10426381;28;20398;-62
2023/08/22 20:34:19;;;;;;;0.07;0.07;;;;;;;-145.06;100.00;39564.09;10431227;28;20325;-62
2023/08/22 20:39:20;;;;;;;0.10;0.10;;;;;;;-145.06;100.00;39588.31;10426979;28;20020;-63
2023/08/22 20:44:20;;;;;;;0.00;0.00;;;;;;;-145.06;100.00;39588.31;10428457;28;20093;-63
2023/08/22 20:49:21;;;;;;;0.00;0.00;;;;;;;-145.06;100.00;39588.31;10432054;28;20043;-63
2023/08/22 20:54:23;;;;;;;0.10;0.10;;;;;;;-145.06;100.00;39620.59;10449020;28;20017;-63
2023/08/22 20:59:23;;;;;;;0.00;0.00;;;;;;;-145.06;100.00;39620.59;10429427;28;20029;-63
2023/08/22 21:04:23;;;;;;;0.10;0.10;;;;;;;-145.06;100.00;39650.84;10434457;28;20029;-63
2023/08/22 21:09:23;;;;;;;0.10;0.10;;;;;;;-145.06;100.00;39632.69;10428333;28;20033;-62
2023/08/22 21:14:24;;;;;;;0.10;0.10;;;;;;;-145.06;100.00;39602.44;10428890;28;20033;-62
2023/08/22 21:19:25;;;;;;;0.10;0.10;;;;;;;-145.06;100.00;39638.75;10442019;28;20127;-63
2023/08/22 21:24:40;;;;;;;0.10;0.10;;;;;;;-145.06;100.00;39648.84;10423618;28;20029;-62
2023/08/22 21:29:41;;;;;;;0.10;0.10;;;;;;;-145.06;100.00;39646.81;10437168;28;20093;-63
2023/08/22 21:34:42;;;;;;;0.10;0.10;;;;;;;-145.06;100.00;39624.63;10430680;28;20198;-62
2023/08/22 21:39:42;;;;;;;0.00;0.00;;;;;;;-145.06;100.00;39658.94;10437429;28;20017;-61
2023/08/22 21:44:44;;;;;;;0.00;0.00;;;;;;;-145.06;100.00;39624.63;10432244;28;20338;-61
2023/08/22 21:49:44;;;;;;;0.10;0.10;;;;;;;-145.06;100.00;39652.88;10433401;28;20119;-62
2023/08/22 21:54:44;;;;;;;0.00;0.00;;;;;;;-145.06;100.00;39673.06;10433921;28;20521;-63
2023/08/22 21:59:45;;;;;;;0.10;0.10;;;;;;;-145.06;100.00;39675.06;10440465;28;20021;-63
2023/08/22 22:04:45;;;;;;;0.00;0.00;;;;;;;-145.06;100.00;39675.06;10438016;28;20162;-63
2023/08/22 22:09:45;;;;;;;0.03;0.03;;;;;;;-145.06;100.00;39671.03;10425500;28;20025;-62
2023/08/22 22:14:46;;;;;;;0.08;0.08;;;;;;;-145.06;100.00;39673.06;10442931;28;20017;-63
2023/08/22 22:19:46;;;;;;;0.10;0.10;;;;;;;-145.06;100.00;39671.03;10434145;28;20025;-63
2023/08/22 22:24:46;;;;;;;0.10;0.10;;;;;;;-145.06;100.00;39685.16;10428937;28;20030;-63
2023/08/22 22:29:46;;;;;;;0.00;0.00;;;;;;;-145.06;100.00;39709.38;10436564;28;20025;-63
2023/08/22 22:34:47;;;;;;;0.10;0.10;;;;;;;-145.06;100.00;39624.63;10428601;28;20025;-63
2023/08/22 22:39:47;;;;;;;0.00;0.00;;;;;;;-145.06;100.00;39677.09;10423412;28;20095;-63
2023/08/22 22:44:48;;;;;;;0.10;0.10;;;;;;;-145.06;100.00;39693.22;10429058;28;20046;-63